createdAt,value
2019-03-06T00:00:31.952Z,5.73
2019-03-06T00:02:58.484Z,7.37
2019-03-06T00:05:26.647Z,6.30
2019-03-06T00:07:53.456Z,6.33
2019-03-06T00:10:22.653Z,6.70
2019-03-06T00:12:49.144Z,5.60
2019-03-06T00:15:15.686Z,6.10
2019-03-06T00:17:42.367Z,6.97
2019-03-06T00:20:09.063Z,6.77
2019-03-06T00:22:35.576Z,6.23
2019-03-06T00:25:02.284Z,6.93
2019-03-06T00:27:28.835Z,8.87
2019-03-06T00:29:55.613Z,6.37
2019-03-06T00:32:22.182Z,11.07
2019-03-06T00:34:49.650Z,7.40
2019-03-06T00:37:16.206Z,5.97
2019-03-06T00:39:58.365Z,7.53
2019-03-06T00:42:25.091Z,8.03
2019-03-06T00:44:51.913Z,9.87
2019-03-06T00:47:18.633Z,6.23
2019-03-06T00:49:45.202Z,8.17
2019-03-06T00:52:11.772Z,9.33
2019-03-06T00:54:38.439Z,6.77
2019-03-06T00:57:05.127Z,7.20
2019-03-06T00:59:31.716Z,6.53
2019-03-06T01:01:58.606Z,7.20
2019-03-06T01:04:25.383Z,7.67
2019-03-06T01:06:52.113Z,6.20
2019-03-06T01:09:18.607Z,7.83
2019-03-06T01:11:45.163Z,7.40
2019-03-06T01:14:11.977Z,7.07
2019-03-06T01:16:38.947Z,8.40
2019-03-06T01:19:05.593Z,12.57
2019-03-06T01:21:32.127Z,8.43
2019-03-06T01:23:58.842Z,9.43
2019-03-06T01:26:25.545Z,9.47
2019-03-06T01:28:52.188Z,9.13
2019-03-06T01:31:18.915Z,9.13
2019-03-06T01:34:06.557Z,8.00
2019-03-06T01:36:52.795Z,8.43
2019-03-06T01:39:29.262Z,8.43
2019-03-06T01:42:03.980Z,11.00
2019-03-06T01:44:35.130Z,9.23
2019-03-06T01:47:01.747Z,9.17
2019-03-06T01:49:28.423Z,8.27
2019-03-06T01:51:54.911Z,8.90
2019-03-06T01:54:21.460Z,7.13
2019-03-06T01:56:48.237Z,6.57
2019-03-06T01:59:14.788Z,9.07
2019-03-06T02:01:41.441Z,8.63
2019-03-06T02:04:07.959Z,9.77
2019-03-06T02:06:34.519Z,8.13
2019-03-06T02:09:01.119Z,8.27
2019-03-06T02:11:27.774Z,6.63
2019-03-06T02:13:54.627Z,7.87
2019-03-06T02:16:21.162Z,7.17
2019-03-06T02:18:47.705Z,8.17
2019-03-06T02:21:15.286Z,8.70
2019-03-06T02:23:41.893Z,8.63
2019-03-06T02:26:08.362Z,9.10
2019-03-06T02:28:34.848Z,8.40
2019-03-06T02:31:02.639Z,8.47
2019-03-06T02:33:29.452Z,8.00
2019-03-06T02:35:56.001Z,6.97
2019-03-06T02:38:22.678Z,6.60
2019-03-06T02:40:49.197Z,8.17
2019-03-06T02:43:15.763Z,7.33
2019-03-06T02:45:42.377Z,7.63
2019-03-06T02:48:09.012Z,7.57
2019-03-06T02:50:35.510Z,6.70
2019-03-06T02:53:02.361Z,8.33
2019-03-06T02:55:30.514Z,8.70
2019-03-06T02:58:10.741Z,8.50
2019-03-06T03:00:49.889Z,7.57
2019-03-06T03:03:45.128Z,9.53
2019-03-06T03:06:22.975Z,7.60
2019-03-06T03:08:49.531Z,10.40
2019-03-06T03:11:16.316Z,10.83
2019-03-06T03:13:43.132Z,7.93
2019-03-06T03:16:09.809Z,7.70
2019-03-06T03:18:37.076Z,11.73
2019-03-06T03:21:03.780Z,8.57
2019-03-06T03:23:30.385Z,9.23
2019-03-06T03:25:56.968Z,9.30
2019-03-06T03:28:23.803Z,10.57
2019-03-06T03:30:50.569Z,9.23
2019-03-06T03:33:17.292Z,9.77
2019-03-06T03:35:43.872Z,9.13
2019-03-06T03:38:10.478Z,12.87
2019-03-06T03:40:37.005Z,10.20
2019-03-06T03:43:03.662Z,9.17
2019-03-06T03:45:30.227Z,10.23
2019-03-06T03:47:56.752Z,9.30
2019-03-06T03:50:23.582Z,10.53
2019-03-06T03:52:50.180Z,9.30
2019-03-06T03:55:16.910Z,8.47
2019-03-06T03:57:43.849Z,11.03
2019-03-06T04:00:11.682Z,10.97
2019-03-06T04:02:39.360Z,9.60
2019-03-06T04:05:06.833Z,10.37
2019-03-06T04:07:33.377Z,8.67
2019-03-06T04:10:00.521Z,12.10
2019-03-06T04:12:27.077Z,9.13
2019-03-06T04:14:53.627Z,8.47
2019-03-06T04:17:20.163Z,10.20
2019-03-06T04:19:46.738Z,10.10
2019-03-06T04:22:13.309Z,9.13
2019-03-06T04:24:40.023Z,8.77
2019-03-06T04:27:06.542Z,13.10
2019-03-06T04:29:33.473Z,9.77
2019-03-06T04:31:59.972Z,11.87
2019-03-06T04:34:26.511Z,9.07
2019-03-06T04:36:53.774Z,11.00
2019-03-06T04:39:20.354Z,9.93
2019-03-06T04:41:46.926Z,8.53
2019-03-06T04:44:13.404Z,10.03
2019-03-06T04:46:40.013Z,9.77
2019-03-06T04:49:06.838Z,8.40
2019-03-06T04:51:33.565Z,10.80
2019-03-06T04:54:00.117Z,8.27
2019-03-06T04:56:26.758Z,7.60
2019-03-06T04:58:53.620Z,11.50
2019-03-06T05:01:22.881Z,9.00
2019-03-06T05:03:50.654Z,8.50
2019-03-06T05:06:17.124Z,9.70
2019-03-06T05:08:43.669Z,7.67
2019-03-06T05:11:10.206Z,7.30
2019-03-06T05:13:36.771Z,9.50
2019-03-06T05:16:03.252Z,8.13
2019-03-06T05:18:34.385Z,8.93
2019-03-06T05:21:00.980Z,8.07
2019-03-06T05:23:27.723Z,7.43
2019-03-06T05:25:54.329Z,6.43
2019-03-06T05:28:20.818Z,9.17
2019-03-06T05:30:47.687Z,6.77
2019-03-06T05:33:14.385Z,7.47
2019-03-06T05:36:11.795Z,7.30
2019-03-06T05:38:45.859Z,8.87
2019-03-06T05:41:12.708Z,6.07
2019-03-06T05:43:39.764Z,7.90
2019-03-06T05:46:06.593Z,5.63
2019-03-06T05:48:33.378Z,5.53
2019-03-06T05:50:59.970Z,7.07
2019-03-06T05:53:26.679Z,7.60
2019-03-06T05:55:53.529Z,9.10
2019-03-06T05:58:20.116Z,8.70
2019-03-06T06:00:46.911Z,7.27
2019-03-06T06:03:14.507Z,6.33
2019-03-06T06:05:41.109Z,7.23
2019-03-06T06:08:07.808Z,10.33
2019-03-06T06:10:34.576Z,9.10
2019-03-06T06:13:02.715Z,7.60
2019-03-06T06:15:29.333Z,8.10
2019-03-06T06:17:56.345Z,7.63
2019-03-06T06:20:23.006Z,7.90
2019-03-06T06:23:09.269Z,7.30
2019-03-06T06:25:36.962Z,5.97
2019-03-06T06:28:03.886Z,6.57
2019-03-06T06:30:30.616Z,7.10
2019-03-06T06:32:57.146Z,8.30
2019-03-06T06:35:24.127Z,6.10
2019-03-06T06:37:51.137Z,6.93
2019-03-06T06:40:20.534Z,6.40
2019-03-06T06:42:47.291Z,5.57
2019-03-06T06:45:15.400Z,7.43
2019-03-06T06:48:19.985Z,7.43
2019-03-06T06:51:09.818Z,5.33
2019-03-06T06:53:47.722Z,5.43
2019-03-06T06:56:56.537Z,5.57
2019-03-06T06:59:33.450Z,5.60
2019-03-06T07:02:42.601Z,5.80
2019-03-06T07:05:48.092Z,8.97
2019-03-06T07:08:32.707Z,6.77
2019-03-06T07:11:19.082Z,8.13
2019-03-06T07:14:17.560Z,5.83
2019-03-06T07:16:57.554Z,5.30
2019-03-06T07:19:40.304Z,7.20
2019-03-06T07:22:23.343Z,6.00
2019-03-06T07:25:07.007Z,6.17
2019-03-06T07:27:41.943Z,5.30
2019-03-06T07:30:38.045Z,6.43
2019-03-06T07:33:24.570Z,7.57
2019-03-06T07:36:20.939Z,5.17
2019-03-06T07:38:50.687Z,7.57
2019-03-06T07:41:55.206Z,7.20
2019-03-06T07:44:48.202Z,6.60
2019-03-06T07:47:34.678Z,6.80
2019-03-06T07:50:19.376Z,5.97
2019-03-06T07:54:01.484Z,5.10
2019-03-06T07:56:32.096Z,5.30
2019-03-06T07:58:58.806Z,5.57
2019-03-06T08:01:28.979Z,5.77
2019-03-06T08:04:01.422Z,7.30
2019-03-06T08:06:28.166Z,6.63
2019-03-06T08:08:54.831Z,6.87
2019-03-06T08:11:28.414Z,6.30
2019-03-06T08:14:06.807Z,5.53
2019-03-06T08:16:39.376Z,6.40
2019-03-06T08:19:24.690Z,5.07
2019-03-06T08:22:04.148Z,5.10
2019-03-06T08:24:48.563Z,4.50
2019-03-06T08:27:16.224Z,5.57
2019-03-06T08:29:43.074Z,5.47
2019-03-06T08:32:20.218Z,4.67
2019-03-06T08:34:46.793Z,4.57
2019-03-06T08:37:13.512Z,6.03
2019-03-06T08:39:40.222Z,3.93
2019-03-06T08:42:11.869Z,4.30
2019-03-06T08:44:39.834Z,4.40
2019-03-06T08:47:24.863Z,9.10
2019-03-06T08:50:26.068Z,6.63
2019-03-06T08:53:10.792Z,4.40
2019-03-06T08:56:04.935Z,5.83
2019-03-06T08:58:49.892Z,3.70
2019-03-06T09:02:01.541Z,3.67
2019-03-06T09:04:41.658Z,5.20
2019-03-06T09:07:28.005Z,3.60
2019-03-06T09:10:36.081Z,3.17
2019-03-06T09:13:22.805Z,3.93
2019-03-06T09:16:06.079Z,4.33
2019-03-06T09:18:56.000Z,5.30
2019-03-06T09:21:51.437Z,3.70
2019-03-06T09:24:30.091Z,4.83
2019-03-06T09:27:06.701Z,3.60
2019-03-06T09:29:51.257Z,4.77
2019-03-06T09:32:30.056Z,3.47
2019-03-06T09:35:11.125Z,3.30
2019-03-06T09:38:11.000Z,4.10
2019-03-06T09:41:05.850Z,2.77
2019-03-06T09:43:50.660Z,4.10
2019-03-06T09:46:23.026Z,2.73
2019-03-06T09:49:11.842Z,2.97
2019-03-06T09:52:03.551Z,5.87
2019-03-06T09:54:48.373Z,6.20
2019-03-06T09:57:29.733Z,4.53
2019-03-06T10:00:16.002Z,4.67
2019-03-06T10:03:05.341Z,4.60
2019-03-06T10:05:51.629Z,3.00
2019-03-06T10:08:52.796Z,4.37
2019-03-06T10:11:42.007Z,3.00
2019-03-06T10:14:16.942Z,3.63
2019-03-06T10:16:59.679Z,6.23
2019-03-06T10:19:38.682Z,4.23
2019-03-06T10:22:05.433Z,4.17
2019-03-06T10:24:32.111Z,3.37
2019-03-06T10:26:59.956Z,4.70
2019-03-06T10:29:27.878Z,3.03
2019-03-06T10:31:54.732Z,4.53
2019-03-06T10:34:21.763Z,5.03
2019-03-06T10:36:48.344Z,3.70
2019-03-06T10:39:16.108Z,2.87
2019-03-06T10:41:42.911Z,2.80
2019-03-06T10:44:10.283Z,2.87
2019-03-06T10:46:37.185Z,4.13
2019-03-06T10:49:04.032Z,3.73
2019-03-06T10:51:31.146Z,2.20
2019-03-06T10:53:58.488Z,4.37
2019-03-06T10:56:25.464Z,6.10
2019-03-06T10:58:54.842Z,4.13
2019-03-06T11:01:25.202Z,3.43
2019-03-06T11:04:17.495Z,5.03
2019-03-06T11:06:44.099Z,2.43
2019-03-06T11:09:10.902Z,4.53
2019-03-06T11:11:37.811Z,3.30
2019-03-06T11:14:06.355Z,6.40
2019-03-06T11:16:35.547Z,3.63
2019-03-06T11:19:02.255Z,2.70
2019-03-06T11:21:29.130Z,3.63
2019-03-06T11:23:58.095Z,8.50
2019-03-06T11:26:25.168Z,8.80
2019-03-06T11:28:52.424Z,5.90
2019-03-06T11:31:19.427Z,4.43
2019-03-06T11:33:46.371Z,3.30
2019-03-06T11:36:13.360Z,5.10
2019-03-06T11:38:44.382Z,2.90
2019-03-06T11:41:10.963Z,3.57
2019-03-06T11:43:38.148Z,3.67
2019-03-06T11:46:05.967Z,3.83
2019-03-06T11:48:32.622Z,2.47
2019-03-06T11:51:05.560Z,3.63
2019-03-06T11:53:34.815Z,3.40
2019-03-06T11:56:02.030Z,3.87
2019-03-06T11:58:28.841Z,4.17
2019-03-06T12:00:55.697Z,4.27
2019-03-06T12:03:22.471Z,5.93
2019-03-06T12:05:49.627Z,5.33
2019-03-06T12:08:19.245Z,4.00
2019-03-06T12:10:46.704Z,2.90
2019-03-06T12:13:14.338Z,4.77
2019-03-06T12:15:42.287Z,2.97
2019-03-06T12:18:09.008Z,4.67
2019-03-06T12:20:35.715Z,4.70
2019-03-06T12:23:03.748Z,3.57
2019-03-06T12:25:30.923Z,3.23
2019-03-06T12:27:57.634Z,3.13
2019-03-06T12:30:24.364Z,4.50
2019-03-06T12:32:51.549Z,2.47
2019-03-06T12:35:18.680Z,3.83
2019-03-06T12:37:47.221Z,5.90
2019-03-06T12:40:15.490Z,2.87
2019-03-06T12:42:42.156Z,3.43
2019-03-06T12:45:11.782Z,4.93
2019-03-06T12:47:42.595Z,6.47
2019-03-06T12:50:12.468Z,2.63
2019-03-06T12:52:39.827Z,2.83
2019-03-06T12:55:07.503Z,4.43
2019-03-06T12:57:34.246Z,3.17
2019-03-06T13:00:02.942Z,3.20
2019-03-06T13:02:29.489Z,4.03
2019-03-06T13:04:56.755Z,3.07
2019-03-06T13:07:23.504Z,3.30
2019-03-06T13:09:50.103Z,3.93
2019-03-06T13:12:16.790Z,5.30
2019-03-06T13:14:43.662Z,2.77
2019-03-06T13:17:10.405Z,3.13
2019-03-06T13:19:36.922Z,3.27
2019-03-06T13:22:11.114Z,4.70
2019-03-06T13:24:37.871Z,3.53
2019-03-06T13:27:06.851Z,2.63
2019-03-06T13:29:36.419Z,10.83
2019-03-06T13:32:11.489Z,3.50
2019-03-06T13:34:50.623Z,4.89
2019-03-06T13:37:16.633Z,3.67
2019-03-06T13:39:44.052Z,3.03
2019-03-06T13:42:18.845Z,3.43
2019-03-06T13:44:45.872Z,3.37
2019-03-06T13:47:12.466Z,2.83
2019-03-06T13:49:43.859Z,3.73
2019-03-06T13:52:11.920Z,3.70
2019-03-06T13:54:38.626Z,4.37
2019-03-06T13:57:05.523Z,2.93
2019-03-06T13:59:32.211Z,3.33
2019-03-06T14:01:59.065Z,2.63
2019-03-06T14:04:26.277Z,4.00
2019-03-06T14:06:55.494Z,3.10
2019-03-06T14:09:23.373Z,2.63
2019-03-06T14:11:51.820Z,3.43
2019-03-06T14:14:18.535Z,4.30
2019-03-06T14:16:45.226Z,4.57
2019-03-06T14:19:12.366Z,3.03
2019-03-06T14:21:41.112Z,4.60
2019-03-06T14:24:07.947Z,3.67
2019-03-06T14:26:35.145Z,5.03
2019-03-06T14:29:02.267Z,2.40
2019-03-06T14:31:29.421Z,2.87
2019-03-06T14:33:57.959Z,2.13
2019-03-06T14:36:24.711Z,3.03
2019-03-06T14:38:53.478Z,2.80
2019-03-06T14:41:21.557Z,4.37
2019-03-06T14:43:48.616Z,3.67
2019-03-06T14:46:16.752Z,4.13
2019-03-06T14:48:46.605Z,3.67
2019-03-06T14:51:14.013Z,3.43
2019-03-06T14:53:41.874Z,3.50
2019-03-06T14:56:09.666Z,4.47
2019-03-06T14:58:39.312Z,5.60
2019-03-06T15:01:06.236Z,4.37
2019-03-06T15:03:33.126Z,4.20
2019-03-06T15:06:00.178Z,4.00
2019-03-06T15:08:26.975Z,5.10
2019-03-06T15:10:54.078Z,2.57
2019-03-06T15:13:20.929Z,3.40
2019-03-06T15:15:47.655Z,3.60
2019-03-06T15:18:14.497Z,2.70
2019-03-06T15:20:41.333Z,3.87
2019-03-06T15:23:09.281Z,2.33
2019-03-06T15:25:36.168Z,2.33
2019-03-06T15:28:02.931Z,4.80
2019-03-06T15:30:30.109Z,3.00
2019-03-06T15:32:57.379Z,2.23
2019-03-06T15:35:25.689Z,3.17
2019-03-06T15:37:52.674Z,2.00
2019-03-06T15:40:22.359Z,3.03
2019-03-06T15:42:50.004Z,1.87
2019-03-06T15:45:21.481Z,2.07
2019-03-06T15:47:48.475Z,1.57
2019-03-06T15:50:15.905Z,2.03
2019-03-06T15:52:42.914Z,5.60
2019-03-06T15:55:10.687Z,3.03
2019-03-06T15:57:37.698Z,1.97
2019-03-06T16:00:09.462Z,2.50
2019-03-06T16:02:36.238Z,2.37
2019-03-06T16:05:05.538Z,3.00
2019-03-06T16:07:32.449Z,2.10
2019-03-06T16:09:59.112Z,1.87
2019-03-06T16:12:26.613Z,1.63
2019-03-06T16:14:54.127Z,2.13
2019-03-06T16:17:21.481Z,1.57
2019-03-06T16:19:49.637Z,2.20
2019-03-06T16:22:19.325Z,1.93
2019-03-06T16:24:46.713Z,2.93
2019-03-06T16:27:14.155Z,3.57
2019-03-06T16:29:41.600Z,2.77
2019-03-06T16:32:09.392Z,2.47
2019-03-06T16:34:36.291Z,1.73
2019-03-06T16:37:03.539Z,2.03
2019-03-06T16:39:31.629Z,3.53
2019-03-06T16:41:58.469Z,1.43
2019-03-06T16:44:25.042Z,1.00
2019-03-06T16:46:52.157Z,1.50
2019-03-06T16:49:18.942Z,1.23
2019-03-06T16:51:45.489Z,1.10
2019-03-06T16:54:12.374Z,1.17
2019-03-06T16:56:39.186Z,2.00
2019-03-06T16:59:06.234Z,1.67
2019-03-06T17:01:33.152Z,1.80
2019-03-06T17:03:59.841Z,1.00
2019-03-06T17:06:27.913Z,2.77
2019-03-06T17:08:54.582Z,1.20
2019-03-06T17:11:21.887Z,1.17
2019-03-06T17:13:48.685Z,2.03
2019-03-06T17:16:15.626Z,1.20
2019-03-06T17:18:42.222Z,1.77
2019-03-06T17:21:09.145Z,1.97
2019-03-06T17:23:35.787Z,1.30
2019-03-06T17:26:02.539Z,2.03
2019-03-06T17:28:29.355Z,4.47
2019-03-06T17:30:55.966Z,1.10
2019-03-06T17:33:22.521Z,1.50
2019-03-06T17:35:50.438Z,1.73
2019-03-06T17:38:16.956Z,1.93
2019-03-06T17:40:44.902Z,2.90
2019-03-06T17:43:11.886Z,1.43
2019-03-06T17:45:38.601Z,0.97
2019-03-06T17:48:05.600Z,2.07
2019-03-06T17:50:32.315Z,2.47
2019-03-06T17:52:59.380Z,4.10
2019-03-06T17:55:26.426Z,2.10
2019-03-06T17:57:53.045Z,2.90
2019-03-06T18:00:23.392Z,1.27
2019-03-06T18:02:50.125Z,2.73
2019-03-06T18:05:16.953Z,2.60
2019-03-06T18:07:43.550Z,1.97
2019-03-06T18:10:11.206Z,2.53
2019-03-06T18:12:37.861Z,1.37
2019-03-06T18:15:07.316Z,3.73
2019-03-06T18:17:33.900Z,1.23
2019-03-06T18:20:00.813Z,1.47
2019-03-06T18:22:27.349Z,5.00
2019-03-06T18:24:54.086Z,1.70
2019-03-06T18:27:26.333Z,2.27
2019-03-06T18:29:49.197Z,3.40
2019-03-06T18:32:18.759Z,2.97
2019-03-06T18:34:46.769Z,1.30
2019-03-06T18:37:17.366Z,3.00
2019-03-06T18:39:44.369Z,2.63
2019-03-06T18:42:11.010Z,1.60
2019-03-06T18:44:38.978Z,1.17
2019-03-06T18:47:05.785Z,1.30
2019-03-06T18:49:33.068Z,2.10
2019-03-06T18:52:11.539Z,1.97
2019-03-06T18:54:39.354Z,1.70
2019-03-06T18:57:07.567Z,2.20
2019-03-06T18:59:34.555Z,1.20
2019-03-06T19:02:01.133Z,1.73
2019-03-06T19:04:29.050Z,1.00
2019-03-06T19:06:58.956Z,1.43
2019-03-06T19:09:26.447Z,1.87
2019-03-06T19:11:55.334Z,2.60
2019-03-06T19:14:23.234Z,1.00
2019-03-06T19:17:03.017Z,1.43
2019-03-06T19:19:29.816Z,1.40
2019-03-06T19:21:56.639Z,2.00
2019-03-06T19:24:23.636Z,2.03
2019-03-06T19:26:50.554Z,1.70
2019-03-06T19:29:17.432Z,2.33
2019-03-06T19:31:45.411Z,1.50
2019-03-06T19:34:13.421Z,4.37
2019-03-06T19:36:41.473Z,1.47
2019-03-06T19:39:08.642Z,2.13
2019-03-06T19:41:36.559Z,1.20
2019-03-06T19:44:03.533Z,1.37
2019-03-06T19:46:34.292Z,2.00
2019-03-06T19:49:01.823Z,3.27
2019-03-06T19:51:32.871Z,1.77
2019-03-06T19:53:59.843Z,3.67
2019-03-06T19:56:27.074Z,1.50
2019-03-06T19:59:02.982Z,1.30
2019-03-06T20:01:32.032Z,2.03
2019-03-06T20:04:00.817Z,2.10
2019-03-06T20:06:27.763Z,2.50
2019-03-06T20:08:55.832Z,2.47
2019-03-06T20:11:22.569Z,1.70
2019-03-06T20:13:49.598Z,1.87
2019-03-06T20:16:21.002Z,2.10
2019-03-06T20:18:48.442Z,1.83
2019-03-06T20:21:24.355Z,2.03
2019-03-06T20:23:51.724Z,2.90
2019-03-06T20:26:20.034Z,2.87
2019-03-06T20:28:51.314Z,1.60
2019-03-06T20:31:17.981Z,1.63
2019-03-06T20:33:45.552Z,1.40
2019-03-06T20:36:12.532Z,2.93
2019-03-06T20:38:39.623Z,2.03
2019-03-06T20:41:07.317Z,1.87
2019-03-06T20:43:44.578Z,2.20
2019-03-06T20:46:11.533Z,3.93
2019-03-06T20:48:38.931Z,2.70
2019-03-06T20:51:05.473Z,2.77
2019-03-06T20:53:33.027Z,3.30
2019-03-06T20:55:59.811Z,1.17
2019-03-06T20:58:26.730Z,3.50
2019-03-06T21:00:53.751Z,1.90
2019-03-06T21:03:20.723Z,1.83
2019-03-06T21:05:47.626Z,2.60
2019-03-06T21:08:15.570Z,4.33
2019-03-06T21:10:42.164Z,2.67
2019-03-06T21:13:09.277Z,2.43
2019-03-06T21:15:36.174Z,2.57
2019-03-06T21:18:37.802Z,1.70
2019-03-06T21:21:05.224Z,5.27
2019-03-06T21:24:01.538Z,2.80
2019-03-06T21:26:34.291Z,1.60
2019-03-06T21:29:06.941Z,3.40
2019-03-06T21:31:34.155Z,4.40
2019-03-06T21:34:01.656Z,3.30
2019-03-06T21:36:30.039Z,2.47
2019-03-06T21:38:59.834Z,4.23
2019-03-06T21:41:27.042Z,2.03
2019-03-06T21:43:55.939Z,1.83
2019-03-06T21:46:25.415Z,1.77
2019-03-06T21:48:54.098Z,2.87
2019-03-06T21:51:21.034Z,4.13
2019-03-06T21:53:51.755Z,3.60
2019-03-06T21:56:19.273Z,4.07
2019-03-06T21:58:47.986Z,2.03
2019-03-06T22:01:30.939Z,3.17
2019-03-06T22:03:59.516Z,1.93
2019-03-06T22:06:26.540Z,5.07
2019-03-06T22:08:53.557Z,2.00
2019-03-06T22:11:20.397Z,4.03
2019-03-06T22:13:48.252Z,3.13
2019-03-06T22:16:16.096Z,5.70
2019-03-06T22:18:44.756Z,3.87
2019-03-06T22:21:12.860Z,3.33
2019-03-06T22:23:45.711Z,2.40
2019-03-06T22:26:15.012Z,2.90
2019-03-06T22:28:43.122Z,3.07
2019-03-06T22:31:09.691Z,4.30
2019-03-06T22:33:41.583Z,2.60
2019-03-06T22:36:09.087Z,2.93
2019-03-06T22:38:36.912Z,2.57
2019-03-06T22:41:06.003Z,1.93
2019-03-06T22:43:33.231Z,2.23
2019-03-06T22:46:01.365Z,2.40
2019-03-06T22:48:28.538Z,1.70
2019-03-06T22:50:57.553Z,2.20
2019-03-06T22:53:32.511Z,2.53
2019-03-06T22:56:09.550Z,2.73
2019-03-06T22:58:42.527Z,1.40
2019-03-06T23:01:35.612Z,3.47
2019-03-06T23:04:13.238Z,2.27
2019-03-06T23:06:44.633Z,2.80
2019-03-06T23:09:29.330Z,2.27
2019-03-06T23:12:10.935Z,2.83
2019-03-06T23:14:44.152Z,2.40
2019-03-06T23:17:20.179Z,2.67
2019-03-06T23:19:55.125Z,3.33
2019-03-06T23:22:22.406Z,1.83
2019-03-06T23:25:01.028Z,2.23
2019-03-06T23:27:39.290Z,2.73
2019-03-06T23:30:24.277Z,2.80
2019-03-06T23:32:54.403Z,2.10
2019-03-06T23:35:32.821Z,2.67
2019-03-06T23:38:00.762Z,2.60
2019-03-06T23:40:27.944Z,2.03
2019-03-06T23:42:55.555Z,3.47
2019-03-06T23:45:29.328Z,2.03
2019-03-06T23:47:57.398Z,5.03
2019-03-06T23:50:31.901Z,2.13
2019-03-06T23:53:04.954Z,3.77
2019-03-06T23:55:32.639Z,2.20
2019-03-06T23:58:01.447Z,2.63
